Time;durP1;ratioP1;P1;durP2;ratioP2;P2;SDS_P1;SDS_P2;PMS_P1;PMS_P2;Temp;Humidity;BMP_temperature;BMP_pressure;BME280_temperature;BME280_humidity;BME280_pressure;Samples;Min_cycle;Max_cycle;Signal;HPM_P1;HPM_P2
2023/10/28 00:01:35;;;;;;;7.28;2.33;;;11.30;99.90;;;;;;5130209;28;20164;-80
2023/10/28 00:04:02;;;;;;;7.95;1.90;;;11.30;99.90;;;;;;5131510;28;20025;-81
2023/10/28 00:06:29;;;;;;;8.63;1.92;;;11.30;99.90;;;;;;5130759;28;20072;-81
2023/10/28 00:08:55;;;;;;;8.75;2.35;;;11.30;99.90;;;;;;5130810;28;20041;-81
2023/10/28 00:11:21;;;;;;;5.00;1.50;;;11.20;99.90;;;;;;5112936;28;20042;-81
2023/10/28 00:13:46;;;;;;;7.03;1.90;;;11.20;99.90;;;;;;5131453;28;20023;-82
2023/10/28 00:16:12;;;;;;;5.60;1.88;;;11.30;99.90;;;;;;5131409;28;20023;-81
2023/10/28 00:18:39;;;;;;;6.65;2.10;;;11.20;99.90;;;;;;5131165;28;20032;-82
2023/10/28 00:21:09;;;;;;;4.68;1.75;;;11.20;99.90;;;;;;5131816;28;20501;-81
2023/10/28 00:23:35;;;;;;;9.60;2.03;;;11.10;99.90;;;;;;5131011;28;20039;-80
2023/10/28 00:26:05;;;;;;;5.05;1.63;;;11.00;99.90;;;;;;5131413;28;20031;-81
2023/10/28 00:28:34;;;;;;;15.07;2.72;;;11.00;99.90;;;;;;5131351;28;20110;-81
2023/10/28 00:31:02;;;;;;;7.05;2.20;;;10.80;99.90;;;;;;5133744;28;20034;-83
2023/10/28 00:33:28;;;;;;;8.68;2.55;;;10.80;99.90;;;;;;5132250;28;20039;-82
2023/10/28 00:35:54;;;;;;;9.77;2.85;;;10.70;99.90;;;;;;5132611;28;20475;-82
2023/10/28 00:38:22;;;;;;;9.23;2.55;;;10.60;99.90;;;;;;5132409;28;20019;-81
2023/10/28 00:40:48;;;;;;;9.00;2.60;;;10.50;99.90;;;;;;5112741;28;20092;-82
2023/10/28 00:43:14;;;;;;;8.77;2.83;;;10.40;99.90;;;;;;5131841;28;20131;-82
2023/10/28 00:45:40;;;;;;;7.63;2.67;;;10.40;99.90;;;;;;5131169;28;20467;-81
2023/10/28 00:48:06;;;;;;;6.43;2.33;;;10.30;99.90;;;;;;5132076;27;20031;-81
2023/10/28 00:50:32;;;;;;;7.88;2.80;;;10.20;99.90;;;;;;5135482;27;20043;-81
2023/10/28 00:53:02;;;;;;;8.57;2.55;;;10.20;99.90;;;;;;5135012;27;20031;-82
2023/10/28 00:55:30;;;;;;;6.82;3.03;;;10.10;99.90;;;;;;5136643;27;20027;-82
2023/10/28 00:57:56;;;;;;;12.38;3.05;;;10.00;99.90;;;;;;5135595;27;20019;-82
2023/10/28 01:00:22;;;;;;;9.43;3.40;;;9.90;99.90;;;;;;5136151;27;20038;-82
2023/10/28 01:02:48;;;;;;;9.25;3.47;;;9.90;99.90;;;;;;5117965;27;20027;-82
2023/10/28 01:05:16;;;;;;;16.50;4.63;;;9.80;99.90;;;;;;5135843;27;20027;-81
2023/10/28 01:07:44;;;;;;;14.77;4.50;;;9.80;99.90;;;;;;5134113;27;20425;-82
2023/10/28 01:10:10;;;;;;;12.70;4.05;;;9.80;99.90;;;;;;5135608;27;20456;-81
2023/10/28 01:12:37;;;;;;;11.75;4.53;;;9.70;99.90;;;;;;5134322;27;20019;-82
2023/10/28 01:15:04;;;;;;;8.73;3.53;;;9.70;99.90;;;;;;5134996;27;20027;-82
2023/10/28 01:17:31;;;;;;;10.05;3.55;;;9.60;99.90;;;;;;5134816;27;20027;-82
2023/10/28 01:19:57;;;;;;;9.23;3.78;;;9.60;99.90;;;;;;5133882;27;20048;-82
2023/10/28 01:22:23;;;;;;;14.48;4.45;;;9.60;99.90;;;;;;5134679;27;20019;-82
2023/10/28 01:24:50;;;;;;;8.80;3.83;;;9.50;99.90;;;;;;5133258;27;20027;-82
2023/10/28 01:27:19;;;;;;;8.38;3.42;;;9.50;99.90;;;;;;5115997;27;20027;-82
2023/10/28 01:29:49;;;;;;;7.50;3.55;;;9.50;99.90;;;;;;5133886;27;20035;-82
2023/10/28 01:32:17;;;;;;;5.70;3.05;;;9.40;99.90;;;;;;5134313;27;20076;-82
2023/10/28 01:34:51;;;;;;;15.55;4.78;;;9.40;99.90;;;;;;5134066;27;20193;-82
2023/10/28 01:37:17;;;;;;;9.40;3.90;;;9.40;99.90;;;;;;5134601;27;20487;-82
2023/10/28 01:39:52;;;;;;;7.82;3.47;;;9.30;99.90;;;;;;5133848;27;20050;-81
2023/10/28 01:42:19;;;;;;;8.68;3.47;;;9.40;99.90;;;;;;5134385;27;20125;-83
2023/10/28 01:44:45;;;;;;;12.85;4.35;;;9.40;99.90;;;;;;5133716;27;20019;-83
2023/10/28 01:47:12;;;;;;;8.38;3.95;;;9.40;99.90;;;;;;5134178;27;20023;-83
2023/10/28 01:49:38;;;;;;;13.98;4.72;;;9.40;99.90;;;;;;5114256;27;20488;-82
2023/10/28 01:52:07;;;;;;;14.13;4.20;;;9.40;99.90;;;;;;5133281;27;20425;-82
2023/10/28 01:54:34;;;;;;;9.07;3.30;;;9.40;99.90;;;;;;5115901;27;20156;-80
2023/10/28 01:57:06;;;;;;;11.18;3.97;;;9.30;99.90;;;;;;5133052;27;20019;-81
2023/10/28 01:59:36;;;;;;;11.52;4.05;;;9.40;99.90;;;;;;5133455;27;20442;-82
2023/10/28 02:02:03;;;;;;;8.88;3.97;;;9.30;99.90;;;;;;5132895;27;20076;-82
2023/10/28 02:04:30;;;;;;;10.68;3.85;;;9.40;99.90;;;;;;5134503;27;20405;-82
2023/10/28 02:06:56;;;;;;;7.63;3.60;;;9.40;99.90;;;;;;5133962;27;20325;-83
2023/10/28 02:09:21;;;;;;;8.43;4.35;;;9.40;99.90;;;;;;5134744;27;20098;-82
2023/10/28 02:11:49;;;;;;;11.38;3.50;;;9.40;99.90;;;;;;5132981;27;20061;-81
2023/10/28 02:14:15;;;;;;;16.10;4.28;;;9.50;99.90;;;;;;5133804;27;20031;-82
2023/10/28 02:16:41;;;;;;;9.32;3.50;;;9.50;99.90;;;;;;5133282;27;20304;-82
2023/10/28 02:19:07;;;;;;;11.82;3.60;;;9.50;99.90;;;;;;5114919;27;20042;-82
2023/10/28 02:21:33;;;;;;;10.90;3.97;;;9.50;99.90;;;;;;5133861;27;20031;-82
2023/10/28 02:24:00;;;;;;;10.93;3.42;;;9.50;99.90;;;;;;5132980;27;20430;-82
2023/10/28 02:26:26;;;;;;;8.23;3.13;;;9.50;99.90;;;;;;5133329;27;20052;-82
2023/10/28 02:28:52;;;;;;;6.65;3.75;;;9.50;99.90;;;;;;5132304;27;20074;-82
2023/10/28 02:31:17;;;;;;;6.90;3.13;;;9.60;99.90;;;;;;5132820;27;20038;-82
2023/10/28 02:33:43;;;;;;;7.68;3.30;;;9.60;99.90;;;;;;5132915;27;20032;-82
2023/10/28 02:36:09;;;;;;;5.45;3.42;;;9.50;99.90;;;;;;5115031;27;20023;-82
2023/10/28 02:38:35;;;;;;;9.40;3.88;;;9.50;99.90;;;;;;5133828;27;20106;-82
2023/10/28 02:41:01;;;;;;;9.55;3.60;;;9.60;99.90;;;;;;5132438;27;20114;-82
2023/10/28 02:43:26;;;;;;;12.27;3.60;;;9.60;99.90;;;;;;5133511;27;20073;-82
2023/10/28 02:45:52;;;;;;;7.07;3.25;;;9.60;99.90;;;;;;5134038;27;20019;-82
2023/10/28 02:48:18;;;;;;;6.10;3.00;;;9.50;99.90;;;;;;5114504;27;20071;-82
2023/10/28 02:50:44;;;;;;;5.85;2.45;;;9.60;99.90;;;;;;5113642;27;20055;-81
2023/10/28 02:53:09;;;;;;;5.70;2.30;;;9.60;99.90;;;;;;5133177;27;20019;-82
2023/10/28 02:55:36;;;;;;;6.47;2.38;;;9.70;99.90;;;;;;5133098;27;20409;-82
2023/10/28 02:58:02;;;;;;;4.65;2.30;;;9.70;99.90;;;;;;5132080;27;20037;-82
2023/10/28 03:00:28;;;;;;;6.63;2.13;;;9.70;99.90;;;;;;5132674;27;20102;-82
2023/10/28 03:02:55;;;;;;;5.93;1.70;;;9.70;99.90;;;;;;5132126;27;20068;-82
2023/10/28 03:05:24;;;;;;;9.32;2.35;;;9.80;99.90;;;;;;5132702;27;20035;-81
2023/10/28 03:07:50;;;;;;;5.85;1.83;;;9.80;99.90;;;;;;5132562;27;20023;-81
2023/10/28 03:10:16;;;;;;;5.72;2.13;;;9.90;99.90;;;;;;5113728;27;20360;-81
2023/10/28 03:12:42;;;;;;;8.95;1.75;;;9.80;99.90;;;;;;5131407;27;20027;-82
2023/10/28 03:15:10;;;;;;;5.63;1.23;;;9.90;99.90;;;;;;5132628;27;20102;-82
2023/10/28 03:17:38;;;;;;;5.25;1.50;;;10.00;99.90;;;;;;5133122;27;20446;-81
2023/10/28 03:20:06;;;;;;;9.27;2.13;;;9.90;99.90;;;;;;5132592;27;20080;-82
2023/10/28 03:22:32;;;;;;;6.60;2.10;;;9.90;99.90;;;;;;5132675;27;20157;-82
2023/10/28 03:24:58;;;;;;;3.60;1.60;;;9.80;99.90;;;;;;5131516;27;20031;-82
2023/10/28 03:27:23;;;;;;;3.67;1.88;;;9.90;99.90;;;;;;5131980;27;20027;-82
2023/10/28 03:29:50;;;;;;;5.13;1.88;;;9.90;99.90;;;;;;5113177;27;20020;-81
2023/10/28 03:32:16;;;;;;;6.90;1.65;;;9.90;99.90;;;;;;5132190;27;20377;-83
2023/10/28 03:34:42;;;;;;;4.22;1.20;;;9.90;99.90;;;;;;5131957;27;20110;-83
2023/10/28 03:37:08;;;;;;;3.67;1.40;;;10.00;99.90;;;;;;5131257;27;20015;-82
2023/10/28 03:39:34;;;;;;;4.10;1.30;;;10.00;99.90;;;;;;5131655;27;20076;-84
2023/10/28 03:42:00;;;;;;;9.55;2.17;;;10.10;99.90;;;;;;5131120;27;20027;-82
2023/10/28 03:44:26;;;;;;;6.22;1.38;;;10.10;99.90;;;;;;5131852;27;20027;-82
2023/10/28 03:46:52;;;;;;;5.95;1.40;;;10.10;99.90;;;;;;5131429;27;20113;-83
2023/10/28 03:49:17;;;;;;;8.52;1.73;;;10.00;99.90;;;;;;5131859;27;20043;-83
2023/10/28 03:51:44;;;;;;;7.07;1.60;;;9.90;99.90;;;;;;5132087;27;20555;-83
2023/10/28 03:54:09;;;;;;;7.43;1.58;;;10.00;99.90;;;;;;5131275;27;20098;-83
2023/10/28 03:56:35;;;;;;;8.48;2.10;;;10.00;99.90;;;;;;5132224;27;20114;-82
2023/10/28 03:59:01;;;;;;;12.68;1.73;;;10.00;99.90;;;;;;5131447;27;20133;-82
2023/10/28 04:01:27;;;;;;;6.55;1.42;;;10.00;99.90;;;;;;5132187;27;20054;-83
2023/10/28 04:03:52;;;;;;;5.63;1.30;;;10.10;99.90;;;;;;5131374;27;20479;-83
2023/10/28 04:06:20;;;;;;;5.57;1.40;;;10.10;99.90;;;;;;5131559;28;20106;-83
2023/10/28 04:08:46;;;;;;;7.07;1.48;;;10.10;99.90;;;;;;5132140;28;20019;-83
2023/10/28 04:11:11;;;;;;;5.80;1.45;;;10.10;99.90;;;;;;5131559;28;20035;-83
2023/10/28 04:13:39;;;;;;;7.95;1.45;;;10.00;99.90;;;;;;5131838;28;20135;-83
2023/10/28 04:16:05;;;;;;;7.10;1.83;;;10.00;99.90;;;;;;5130598;28;20026;-83
2023/10/28 04:18:31;;;;;;;5.85;2.17;;;10.00;99.90;;;;;;5131833;28;20482;-83
2023/10/28 04:20:57;;;;;;;10.02;1.65;;;10.00;99.90;;;;;;5130905;28;20051;-83
2023/10/28 04:23:22;;;;;;;6.85;1.60;;;10.00;99.90;;;;;;5134081;27;20095;-83
2023/10/28 04:25:48;;;;;;;5.10;1.67;;;10.00;99.90;;;;;;5135142;27;20024;-82
2023/10/28 04:28:14;;;;;;;4.40;1.50;;;10.00;99.90;;;;;;5135340;27;20023;-82
2023/10/28 04:30:40;;;;;;;8.60;2.55;;;10.00;99.90;;;;;;5135523;27;20471;-84
2023/10/28 04:33:05;;;;;;;6.35;2.10;;;9.90;99.90;;;;;;5135083;27;20139;-82
2023/10/28 04:35:31;;;;;;;7.28;1.80;;;9.90;99.90;;;;;;5135337;27;20027;-83
2023/10/28 04:37:57;;;;;;;5.63;1.60;;;9.90;99.90;;;;;;5135255;27;20092;-82
2023/10/28 04:40:24;;;;;;;9.18;1.80;;;9.80;99.90;;;;;;5135617;27;20382;-82
2023/10/28 04:42:50;;;;;;;5.63;1.98;;;9.80;99.90;;;;;;5116121;27;20030;-82
2023/10/28 04:45:16;;;;;;;7.55;2.10;;;9.70;99.90;;;;;;5134736;27;20019;-82
2023/10/28 04:47:42;;;;;;;5.18;2.30;;;9.70;99.90;;;;;;5135338;27;20062;-82
2023/10/28 04:50:08;;;;;;;4.45;1.80;;;9.70;99.90;;;;;;5134074;27;20369;-81
2023/10/28 04:52:34;;;;;;;6.70;1.80;;;9.60;99.90;;;;;;5135109;27;20027;-82
2023/10/28 04:55:00;;;;;;;5.53;1.63;;;9.60;99.90;;;;;;5134544;27;20089;-82
2023/10/28 04:57:26;;;;;;;9.23;2.28;;;9.60;99.90;;;;;;5116491;27;20023;-83
2023/10/28 04:59:51;;;;;;;4.97;1.75;;;9.50;99.90;;;;;;5134738;27;20031;-83
2023/10/28 05:02:17;;;;;;;2.78;1.50;;;9.50;99.90;;;;;;5134876;27;20023;-83
2023/10/28 05:04:43;;;;;;;4.90;2.05;;;9.50;99.90;;;;;;5134915;27;20467;-83
2023/10/28 05:07:08;;;;;;;5.57;1.50;;;9.50;99.90;;;;;;5134340;27;20031;-83
2023/10/28 05:09:36;;;;;;;5.68;1.48;;;9.50;99.90;;;;;;5116639;27;20031;-83
2023/10/28 05:12:02;;;;;;;5.25;2.20;;;9.50;99.90;;;;;;5134222;27;20027;-83
2023/10/28 05:14:27;;;;;;;4.50;2.40;;;9.50;99.90;;;;;;5134732;27;20023;-83
2023/10/28 05:16:54;;;;;;;7.00;2.28;;;9.40;99.90;;;;;;5134097;27;20035;-83
2023/10/28 05:19:22;;;;;;;4.97;2.55;;;9.40;99.90;;;;;;5134900;27;20035;-82
2023/10/28 05:21:48;;;;;;;9.18;2.25;;;9.30;99.90;;;;;;5134685;27;20114;-82
2023/10/28 05:24:14;;;;;;;4.68;2.08;;;9.40;99.90;;;;;;5134088;27;20032;-83
2023/10/28 05:26:40;;;;;;;5.28;2.55;;;9.40;99.90;;;;;;5116247;27;20030;-83
2023/10/28 05:29:06;;;;;;;11.55;2.33;;;9.40;99.90;;;;;;5134224;27;20031;-82
2023/10/28 05:31:32;;;;;;;6.05;1.90;;;9.40;99.90;;;;;;5134071;27;20034;-82
2023/10/28 05:33:58;;;;;;;4.50;1.70;;;9.50;99.90;;;;;;5133031;27;20167;-82
2023/10/28 05:36:24;;;;;;;4.57;1.83;;;9.50;99.90;;;;;;5133969;27;20038;-83
2023/10/28 05:38:50;;;;;;;9.98;2.15;;;9.50;99.90;;;;;;5135319;27;20027;-82
2023/10/28 05:41:15;;;;;;;6.45;1.90;;;9.50;99.90;;;;;;5134942;27;20072;-82
2023/10/28 05:43:41;;;;;;;6.60;2.08;;;9.50;99.90;;;;;;5134605;27;20023;-82
2023/10/28 05:46:07;;;;;;;4.05;1.90;;;9.50;99.90;;;;;;5115933;27;20031;-83
2023/10/28 05:48:33;;;;;;;2.78;1.50;;;9.50;99.90;;;;;;5116466;27;20079;-82
2023/10/28 05:50:59;;;;;;;4.45;1.77;;;9.50;99.90;;;;;;5134252;27;20143;-82
2023/10/28 05:53:25;;;;;;;4.53;1.70;;;9.50;99.90;;;;;;5134624;27;20027;-83
2023/10/28 05:55:52;;;;;;;2.97;1.73;;;9.60;99.90;;;;;;5134886;27;20023;-82
2023/10/28 05:58:18;;;;;;;7.15;2.22;;;9.60;99.90;;;;;;5133254;27;20034;-82
2023/10/28 06:00:45;;;;;;;6.47;1.52;;;9.60;99.90;;;;;;5138819;27;20031;-82
2023/10/28 06:03:12;;;;;;;4.47;1.25;;;9.70;99.90;;;;;;5146254;27;20024;-83
2023/10/28 06:05:38;;;;;;;4.30;1.60;;;9.70;99.90;;;;;;5133859;27;20164;-83
2023/10/28 06:08:03;;;;;;;3.40;1.40;;;9.70;99.90;;;;;;5132672;27;20507;-84
2023/10/28 06:10:29;;;;;;;7.50;1.50;;;9.70;99.90;;;;;;5115697;27;20039;-83
2023/10/28 06:12:55;;;;;;;5.45;1.73;;;9.60;99.90;;;;;;5133643;27;20079;-83
2023/10/28 06:15:22;;;;;;;5.47;1.60;;;9.60;99.90;;;;;;5133481;27;20371;-83
2023/10/28 06:17:48;;;;;;;5.78;1.73;;;9.60;99.90;;;;;;5133424;27;20031;-84
2023/10/28 06:20:14;;;;;;;6.50;2.10;;;9.60;99.90;;;;;;5133283;27;20134;-83
2023/10/28 06:22:39;;;;;;;9.40;1.90;;;9.60;99.90;;;;;;5133701;27;20034;-83
2023/10/28 06:25:06;;;;;;;5.97;1.60;;;9.60;99.90;;;;;;5114660;27;20126;-84
2023/10/28 06:27:33;;;;;;;5.68;1.40;;;9.70;99.90;;;;;;5115220;27;20027;-84
2023/10/28 06:30:00;;;;;;;5.43;1.42;;;9.70;99.90;;;;;;5132610;27;20132;-82
2023/10/28 06:32:28;;;;;;;4.85;2.03;;;9.70;99.90;;;;;;5115093;27;20031;-83
2023/10/28 06:34:55;;;;;;;5.43;1.65;;;9.80;99.90;;;;;;5133588;27;20118;-82
2023/10/28 06:37:21;;;;;;;3.70;1.30;;;9.70;99.90;;;;;;5133825;27;20455;-82
2023/10/28 06:39:47;;;;;;;4.97;2.17;;;9.70;99.90;;;;;;5133530;27;20035;-82
2023/10/28 06:42:13;;;;;;;5.35;2.17;;;9.70;99.90;;;;;;5132258;27;20019;-82
2023/10/28 06:44:39;;;;;;;5.63;1.75;;;9.70;99.90;;;;;;5114435;27;20114;-82
2023/10/28 06:47:06;;;;;;;7.10;1.60;;;9.70;99.90;;;;;;5132612;27;20115;-82
2023/10/28 06:49:31;;;;;;;4.72;1.58;;;9.80;99.90;;;;;;5132863;27;20051;-82
2023/10/28 06:51:57;;;;;;;4.65;1.73;;;9.80;99.90;;;;;;5132642;27;20042;-82
2023/10/28 06:54:24;;;;;;;6.13;1.75;;;9.80;99.90;;;;;;5133373;27;20027;-82
2023/10/28 06:56:50;;;;;;;4.10;1.63;;;9.80;99.90;;;;;;5114614;27;20073;-82
2023/10/28 06:59:16;;;;;;;5.60;1.40;;;9.80;99.90;;;;;;5131893;27;20337;-82
2023/10/28 07:01:42;;;;;;;7.82;1.58;;;9.90;99.90;;;;;;5132996;27;20034;-81
2023/10/28 07:04:07;;;;;;;4.97;1.40;;;10.00;99.90;;;;;;5113858;27;20030;-83
2023/10/28 07:06:33;;;;;;;5.15;1.27;;;10.00;99.90;;;;;;5132887;27;20546;-82
2023/10/28 07:08:59;;;;;;;5.43;1.38;;;10.00;99.90;;;;;;5132286;27;20034;-82
2023/10/28 07:11:25;;;;;;;4.13;0.95;;;10.00;99.90;;;;;;5113558;27;20080;-82
2023/10/28 07:13:50;;;;;;;7.18;1.17;;;10.10;99.90;;;;;;5132173;27;20067;-83
2023/10/28 07:16:19;;;;;;;3.60;1.20;;;10.20;99.90;;;;;;5131956;27;20464;-83
2023/10/28 07:18:45;;;;;;;4.63;1.10;;;10.10;99.90;;;;;;5132887;27;20403;-81
2023/10/28 07:21:11;;;;;;;6.82;1.40;;;10.20;99.90;;;;;;5131984;27;20038;-83
2023/10/28 07:23:37;;;;;;;7.20;1.60;;;10.20;99.90;;;;;;5132255;27;20023;-83
2023/10/28 07:26:03;;;;;;;7.20;2.70;;;10.20;99.90;;;;;;5131927;27;20098;-83
2023/10/28 07:28:37;;;;;;;5.15;1.92;;;10.10;99.90;;;;;;5132480;27;20042;-83
2023/10/28 07:31:03;;;;;;;7.22;4.57;;;10.20;99.90;;;;;;5131971;27;20099;-83
2023/10/28 07:33:29;;;;;;;5.10;2.53;;;10.10;99.90;;;;;;5132068;27;20022;-83
2023/10/28 07:35:55;;;;;;;10.02;2.70;;;10.10;99.90;;;;;;5140959;27;20038;-82
2023/10/28 07:38:21;;;;;;;8.00;3.38;;;10.10;99.90;;;;;;5146285;27;20019;-82
2023/10/28 07:40:48;;;;;;;9.80;2.47;;;10.20;99.90;;;;;;5142250;27;20084;-83
2023/10/28 07:43:15;;;;;;;10.50;3.10;;;10.10;99.90;;;;;;5133040;27;20148;-83
2023/10/28 07:45:42;;;;;;;7.78;3.15;;;10.10;99.90;;;;;;5132856;27;20444;-82
2023/10/28 07:48:09;;;;;;;6.30;3.70;;;10.10;99.90;;;;;;5132274;27;20030;-82
2023/10/28 07:50:36;;;;;;;7.78;2.33;;;10.10;99.90;;;;;;5132262;27;20357;-82
2023/10/28 07:53:04;;;;;;;5.18;1.95;;;10.20;99.90;;;;;;5131498;27;20035;-81
2023/10/28 07:55:31;;;;;;;4.32;1.67;;;10.10;99.90;;;;;;5131895;27;20029;-83
2023/10/28 07:57:57;;;;;;;6.05;1.85;;;10.10;99.90;;;;;;5112893;28;20030;-84
2023/10/28 08:00:23;;;;;;;5.00;1.88;;;10.10;99.90;;;;;;5131411;27;20558;-83
2023/10/28 08:02:49;;;;;;;10.27;2.65;;;10.10;99.90;;;;;;5131777;27;20019;-83
2023/10/28 08:05:16;;;;;;;5.20;2.00;;;10.10;99.90;;;;;;5131393;28;20101;-84
2023/10/28 08:07:42;;;;;;;4.18;1.75;;;10.10;99.90;;;;;;5113280;28;20065;-84
2023/10/28 08:10:09;;;;;;;4.88;1.38;;;10.10;99.90;;;;;;5131518;28;20107;-82
2023/10/28 08:12:36;;;;;;;6.57;1.60;;;10.20;99.90;;;;;;5131861;28;20124;-83
2023/10/28 08:15:07;;;;;;;9.05;1.75;;;10.30;99.90;;;;;;5131826;28;20102;-83
2023/10/28 08:17:33;;;;;;;5.30;1.33;;;10.30;99.90;;;;;;5115342;28;20080;-84
2023/10/28 08:19:59;;;;;;;4.82;1.42;;;10.40;99.90;;;;;;5132473;28;20023;-83
2023/10/28 08:22:25;;;;;;;8.73;1.65;;;10.50;99.90;;;;;;5114192;28;20213;-84
2023/10/28 08:24:51;;;;;;;7.15;1.55;;;10.60;99.90;;;;;;5132536;28;20029;-83
2023/10/28 08:27:18;;;;;;;8.68;1.75;;;10.70;99.90;;;;;;5131903;28;20096;-83
2023/10/28 08:29:43;;;;;;;5.70;1.65;;;10.70;99.90;;;;;;5114012;28;20024;-83
2023/10/28 08:32:10;;;;;;;4.75;1.30;;;10.80;99.90;;;;;;5131330;28;20034;-84
2023/10/28 08:34:36;;;;;;;8.32;1.70;;;11.00;99.90;;;;;;5132092;28;20509;-83
2023/10/28 08:37:02;;;;;;;6.47;1.10;;;11.10;99.90;;;;;;5132276;28;20054;-84
2023/10/28 08:39:29;;;;;;;9.40;1.30;;;11.20;99.90;;;;;;5131188;28;20024;-84
2023/10/28 08:41:56;;;;;;;5.53;1.40;;;11.30;99.90;;;;;;5132066;28;20156;-83
2023/10/28 08:44:27;;;;;;;5.75;1.40;;;11.40;99.90;;;;;;5131478;28;20384;-83
2023/10/28 08:46:56;;;;;;;5.88;1.05;;;11.50;99.90;;;;;;5131404;28;20302;-83
2023/10/28 08:49:24;;;;;;;6.90;1.55;;;11.60;99.90;;;;;;5112163;28;20381;-83
2023/10/28 08:51:58;;;;;;;6.03;1.27;;;11.60;99.90;;;;;;5131342;28;20023;-83
2023/10/28 08:54:26;;;;;;;7.38;1.33;;;11.70;99.90;;;;;;5112174;28;20027;-78
2023/10/28 08:56:56;;;;;;;5.22;1.15;;;11.60;99.90;;;;;;5131533;28;20030;-84
2023/10/28 08:59:21;;;;;;;6.03;1.20;;;11.70;99.90;;;;;;5130592;28;20019;-84
2023/10/28 09:01:48;;;;;;;3.55;1.08;;;11.80;99.90;;;;;;5131501;28;20031;-85
2023/10/28 09:04:15;;;;;;;7.05;1.45;;;11.80;99.90;;;;;;5131023;28;20020;-84
2023/10/28 09:06:42;;;;;;;9.73;1.83;;;11.80;99.90;;;;;;5131382;28;20019;-85
2023/10/28 09:09:12;;;;;;;5.88;1.45;;;11.90;99.90;;;;;;5131684;27;20445;-85
2023/10/28 09:11:39;;;;;;;5.68;1.20;;;11.90;99.90;;;;;;5135139;27;20103;-85
2023/10/28 09:14:07;;;;;;;6.60;1.70;;;11.80;99.90;;;;;;5116595;27;20109;-85
2023/10/28 09:16:34;;;;;;;7.28;1.15;;;11.80;99.90;;;;;;5116193;27;20020;-85
2023/10/28 09:19:02;;;;;;;7.82;1.63;;;11.80;99.90;;;;;;5116496;27;20361;-85
2023/10/28 09:21:29;;;;;;;11.40;1.70;;;11.80;99.90;;;;;;5134564;27;20572;-86
2023/10/28 09:24:02;;;;;;;6.65;1.58;;;11.80;99.90;;;;;;5135157;27;20023;-86
2023/10/28 09:26:31;;;;;;;8.82;1.83;;;11.80;99.90;;;;;;5115748;27;20027;-86
2023/10/28 09:28:58;;;;;;;5.00;1.10;;;11.80;99.90;;;;;;5134942;27;20034;-85
2023/10/28 09:31:28;;;;;;;10.15;1.33;;;11.70;99.90;;;;;;5134511;27;20073;-85
2023/10/28 09:33:55;;;;;;;8.48;1.83;;;11.70;99.90;;;;;;5116396;27;20080;-86
2023/10/28 09:36:21;;;;;;;7.95;1.65;;;11.80;99.90;;;;;;5099152;27;20040;-86
2023/10/28 09:38:47;;;;;;;2.33;0.85;;;11.80;99.90;;;;;;5116180;27;20028;-85
2023/10/28 09:41:14;;;;;;;7.05;1.50;;;11.80;99.90;;;;;;5134046;27;20034;-85
2023/10/28 09:43:40;;;;;;;6.47;1.63;;;11.80;99.90;;;;;;5116032;27;20069;-86
2023/10/28 09:46:06;;;;;;;10.50;1.48;;;11.90;99.90;;;;;;5134043;27;20070;-85
2023/10/28 09:48:38;;;;;;;5.35;1.75;;;11.90;99.90;;;;;;5134084;27;20494;-85
2023/10/28 09:51:05;;;;;;;11.07;1.98;;;12.00;99.90;;;;;;5115353;27;20353;-85
2023/10/28 09:53:35;;;;;;;5.28;1.23;;;12.00;99.90;;;;;;5134056;27;20509;-84
2023/10/28 09:56:03;;;;;;;5.65;1.55;;;12.00;99.90;;;;;;5133846;27;20023;-85
2023/10/28 09:58:41;;;;;;;5.90;1.40;;;12.00;99.90;;;;;;5133326;27;20023;-84
2023/10/28 10:01:37;;;;;;;6.93;1.45;;;12.10;99.90;;;;;;5133868;27;20049;-84
2023/10/28 10:04:18;;;;;;;8.52;1.67;;;12.10;99.90;;;;;;5134164;27;20568;-85
2023/10/28 10:06:44;;;;;;;5.07;1.30;;;12.10;99.90;;;;;;5134183;27;20102;-85
2023/10/28 10:09:12;;;;;;;3.58;1.17;;;12.20;99.90;;;;;;5115495;27;20409;-84
2023/10/28 10:11:44;;;;;;;8.35;1.60;;;12.20;99.90;;;;;;5114864;27;20388;-85
2023/10/28 10:14:10;;;;;;;6.40;1.58;;;12.20;99.90;;;;;;5115276;27;20023;-85
2023/10/28 10:16:49;;;;;;;5.88;1.13;;;12.30;99.90;;;;;;5114997;27;20053;-85
2023/10/28 10:19:44;;;;;;;5.65;1.50;;;12.40;99.90;;;;;;5114573;27;20118;-84
2023/10/28 10:22:10;;;;;;;5.68;1.35;;;12.40;99.90;;;;;;5115417;27;20035;-84
2023/10/28 10:24:35;;;;;;;7.78;1.73;;;12.50;99.90;;;;;;5114374;27;20034;-85
2023/10/28 10:27:05;;;;;;;7.30;1.33;;;12.50;99.90;;;;;;5132856;27;20024;-85
2023/10/28 10:29:43;;;;;;;7.68;1.63;;;12.60;99.90;;;;;;5132749;27;20110;-84
2023/10/28 10:32:18;;;;;;;9.32;1.38;;;12.60;99.90;;;;;;5133353;27;20031;-84
2023/10/28 10:34:47;;;;;;;9.52;1.95;;;12.70;99.90;;;;;;5118508;27;20031;-84
2023/10/28 10:37:25;;;;;;;7.30;1.42;;;12.80;99.90;;;;;;5134331;27;20027;-85
2023/10/28 10:39:53;;;;;;;7.53;1.52;;;12.80;99.90;;;;;;5135343;27;20112;-84
2023/10/28 10:42:19;;;;;;;7.47;1.63;;;12.90;99.90;;;;;;5134675;27;20045;-84
2023/10/28 10:44:46;;;;;;;5.85;1.50;;;12.90;99.90;;;;;;5134908;27;20110;-84
2023/10/28 10:47:13;;;;;;;6.85;1.55;;;13.00;99.90;;;;;;5116419;27;20062;-84
2023/10/28 10:49:39;;;;;;;10.32;1.80;;;13.00;99.90;;;;;;5133499;27;20061;-83
2023/10/28 10:52:06;;;;;;;8.57;1.65;;;13.10;99.90;;;;;;5133534;27;20063;-85
2023/10/28 10:54:34;;;;;;;7.97;1.65;;;13.10;99.90;;;;;;5133280;27;20052;-85
2023/10/28 10:57:00;;;;;;;4.68;1.23;;;13.10;99.90;;;;;;5133213;27;20087;-85
2023/10/28 10:59:29;;;;;;;8.73;1.83;;;13.10;99.90;;;;;;5132972;27;20051;-84
2023/10/28 11:02:00;;;;;;;5.20;1.30;;;13.10;99.90;;;;;;5133467;27;20034;-84
2023/10/28 11:04:27;;;;;;;7.70;1.52;;;13.20;99.90;;;;;;5132783;27;20035;-84
2023/10/28 11:06:53;;;;;;;12.32;2.33;;;13.20;99.90;;;;;;5114802;27;20019;-85
2023/10/28 11:09:20;;;;;;;6.38;1.67;;;13.30;99.90;;;;;;5133204;27;20042;-85
2023/10/28 11:11:45;;;;;;;7.50;1.52;;;13.40;99.90;;;;;;5133259;27;20031;-84
2023/10/28 11:14:14;;;;;;;7.93;1.50;;;13.40;99.90;;;;;;5133690;27;20348;-83
2023/10/28 11:16:41;;;;;;;11.57;1.77;;;13.50;99.90;;;;;;5132539;27;20027;-85
2023/10/28 11:19:08;;;;;;;6.82;1.95;;;13.50;99.90;;;;;;5117749;27;20023;-83
2023/10/28 11:21:36;;;;;;;7.05;1.45;;;13.60;99.90;;;;;;5150713;27;20081;-84
2023/10/28 11:24:04;;;;;;;10.90;2.22;;;13.60;99.90;;;;;;5150247;27;20079;-81
2023/10/28 11:26:30;;;;;;;7.53;1.58;;;13.60;99.90;;;;;;5152176;27;20038;-83
2023/10/28 11:28:59;;;;;;;7.88;1.33;;;13.50;99.90;;;;;;5141148;27;20039;-82
2023/10/28 11:31:31;;;;;;;6.13;1.65;;;13.50;99.90;;;;;;5116919;27;20031;-84
2023/10/28 11:34:01;;;;;;;6.22;1.75;;;13.50;99.90;;;;;;5134534;27;20015;-83
2023/10/28 11:36:27;;;;;;;5.05;1.50;;;13.40;99.90;;;;;;5114567;27;20027;-85
2023/10/28 11:38:56;;;;;;;8.32;1.75;;;13.40;99.90;;;;;;5114597;27;20391;-84
2023/10/28 11:41:22;;;;;;;7.00;1.60;;;13.50;99.90;;;;;;5130189;27;20027;-81
2023/10/28 11:43:52;;;;;;;6.75;1.83;;;13.50;99.90;;;;;;5130779;27;20019;-84
2023/10/28 11:46:18;;;;;;;7.10;1.60;;;13.50;99.90;;;;;;5130986;27;20521;-85
2023/10/28 11:48:45;;;;;;;7.88;2.05;;;13.60;99.90;;;;;;5131452;27;20050;-83
2023/10/28 11:51:15;;;;;;;11.02;2.00;;;13.70;99.90;;;;;;5132024;27;20058;-84
2023/10/28 11:53:47;;;;;;;6.22;1.70;;;13.90;99.90;;;;;;5131717;27;20039;-84
2023/10/28 11:56:15;;;;;;;8.32;1.73;;;14.00;99.90;;;;;;5114109;28;20023;-84
2023/10/28 11:58:43;;;;;;;6.63;1.42;;;14.10;99.90;;;;;;5114069;28;20471;-84
2023/10/28 12:01:09;;;;;;;6.13;1.90;;;14.10;99.90;;;;;;5133071;27;20056;-85
2023/10/28 12:03:35;;;;;;;9.02;2.05;;;14.20;99.90;;;;;;5132095;27;20050;-84
2023/10/28 12:06:01;;;;;;;7.13;2.38;;;14.20;99.90;;;;;;5132718;28;20110;-84
2023/10/28 12:08:26;;;;;;;8.75;2.22;;;14.20;99.90;;;;;;5132101;28;20027;-84
2023/10/28 12:10:53;;;;;;;11.00;2.10;;;14.20;99.90;;;;;;5114092;28;20080;-84
2023/10/28 12:13:19;;;;;;;13.63;2.20;;;14.20;99.90;;;;;;5113594;28;20031;-85
2023/10/28 12:15:45;;;;;;;10.70;2.30;;;14.20;99.90;;;;;;5132678;28;20023;-82
2023/10/28 12:18:11;;;;;;;13.70;3.08;;;14.10;99.90;;;;;;5132194;28;20044;-83
2023/10/28 12:20:38;;;;;;;13.00;3.13;;;14.00;99.90;;;;;;5134836;28;20138;-83
2023/10/28 12:23:04;;;;;;;10.85;3.20;;;14.00;99.90;;;;;;5135122;28;20027;-83
2023/10/28 12:25:30;;;;;;;15.20;2.90;;;13.90;99.90;;;;;;5132475;28;20031;-85
2023/10/28 12:27:56;;;;;;;9.32;3.13;;;13.90;99.90;;;;;;5132440;28;20024;-84
2023/10/28 12:30:22;;;;;;;10.32;2.83;;;13.90;99.90;;;;;;5132028;28;20188;-84
2023/10/28 12:32:49;;;;;;;10.32;2.38;;;13.90;99.90;;;;;;5132694;28;20476;-83
2023/10/28 12:35:15;;;;;;;12.00;2.60;;;13.90;99.90;;;;;;5132484;28;20046;-83
2023/10/28 12:37:41;;;;;;;11.52;2.30;;;14.00;99.90;;;;;;5132249;28;20023;-80
2023/10/28 12:40:09;;;;;;;14.63;3.00;;;13.90;99.90;;;;;;5132061;28;20027;-83
2023/10/28 12:42:36;;;;;;;12.93;2.90;;;13.90;99.90;;;;;;5113668;28;20039;-83
2023/10/28 12:45:09;;;;;;;6.93;1.92;;;13.90;99.90;;;;;;5117444;27;20052;-84
2023/10/28 12:47:35;;;;;;;8.13;1.40;;;13.90;99.90;;;;;;5117144;27;20310;-84
2023/10/28 12:50:03;;;;;;;9.25;1.98;;;14.00;99.90;;;;;;5117464;27;20422;-84